Time;durP1;ratioP1;P1;durP2;ratioP2;P2;SDS_P1;SDS_P2;PMS_P1;PMS_P2;Temp;Humidity;BMP_temperature;BMP_pressure;BME280_temperature;BME280_humidity;BME280_pressure;Samples;Min_cycle;Max_cycle;Signal;HPM_P1;HPM_P2
2022/06/16 00:02:14;;;;;;;1.65;1.52;;;;;;;18.82;52.41;100229.53;4340230;33;33356;-80
2022/06/16 00:04:46;;;;;;;2.35;1.40;;;;;;;18.92;52.01;100227.03;4325678;33;33948;-80
2022/06/16 00:07:15;;;;;;;1.70;1.60;;;;;;;18.91;52.09;100228.88;4336148;33;33826;-80
2022/06/16 00:09:43;;;;;;;1.70;1.20;;;;;;;18.86;52.37;100228.34;4331239;33;34294;-80
2022/06/16 00:12:11;;;;;;;2.22;1.70;;;;;;;18.80;52.73;100230.59;4338303;33;33971;-80
2022/06/16 00:14:40;;;;;;;2.15;1.10;;;;;;;18.78;52.96;100229.84;4342778;33;34432;-81
2022/06/16 00:17:08;;;;;;;2.33;1.70;;;;;;;18.74;53.33;100228.34;4325451;33;34799;-80
2022/06/16 00:19:35;;;;;;;1.60;1.20;;;;;;;18.79;53.24;100223.53;4340360;33;32653;-81
2022/06/16 00:22:03;;;;;;;4.40;1.55;;;;;;;18.64;54.03;100226.28;4326104;33;34095;-80
2022/06/16 00:24:32;;;;;;;2.37;1.35;;;;;;;18.72;53.77;100219.59;4329593;33;32641;-82
2022/06/16 00:26:59;;;;;;;2.10;1.45;;;;;;;18.67;53.93;100220.75;4338759;33;33003;-81
2022/06/16 00:29:27;;;;;;;2.25;1.58;;;;;;;18.67;54.15;100211.88;4328803;33;33878;-81
2022/06/16 00:31:56;;;;;;;2.67;1.65;;;;;;;18.71;54.10;100213.41;4335191;33;33448;-81
2022/06/16 00:34:23;;;;;;;2.40;1.80;;;;;;;18.67;54.28;100207.38;4327309;33;33094;-81
2022/06/16 00:36:52;;;;;;;3.30;1.67;;;;;;;18.49;54.99;100208.66;4336635;33;33666;-82
2022/06/16 00:39:21;;;;;;;1.40;1.30;;;;;;;18.67;54.15;100212.72;4330516;33;34081;-81
2022/06/16 00:41:49;;;;;;;2.42;2.10;;;;;;;18.49;54.27;100214.00;4340632;33;33440;-81
2022/06/16 00:44:38;;;;;;;4.25;1.67;;;;;;;18.55;54.42;100208.22;4324796;33;33797;-81
2022/06/16 00:47:06;;;;;;;1.75;1.37;;;;;;;18.55;54.55;100213.56;4324567;33;34050;-81
2022/06/16 00:49:36;;;;;;;1.90;1.40;;;;;;;18.54;54.44;100205.66;4325253;33;34506;-81
2022/06/16 00:52:32;;;;;;;1.55;1.45;;;;;;;18.44;54.88;100208.12;4342441;33;34046;-81
2022/06/16 00:55:00;;;;;;;1.33;1.05;;;;;;;18.40;55.35;100202.13;4326408;33;34618;-81
2022/06/16 00:57:37;;;;;;;1.70;1.50;;;;;;;18.43;55.27;100198.41;4341172;33;33386;-81
2022/06/16 01:00:15;;;;;;;2.75;1.33;;;;;;;18.52;54.83;100202.25;4330967;33;32946;-81
2022/06/16 01:02:43;;;;;;;2.40;1.75;;;;;;;18.39;55.05;100203.09;4331069;33;34097;-82
2022/06/16 01:05:11;;;;;;;2.25;1.70;;;;;;;18.31;55.01;100188.53;4322492;33;33937;-81
2022/06/16 01:07:42;;;;;;;2.55;1.83;;;;;;;18.31;54.97;100186.72;4334894;33;34007;-81
2022/06/16 01:10:11;;;;;;;1.95;1.40;;;;;;;18.24;54.98;100193.47;4329598;33;33599;-81
2022/06/16 01:15:39;;;;;;;2.55;1.42;;;;;;;18.25;54.98;100180.97;4324449;33;32451;-81
2022/06/16 01:18:15;;;;;;;1.95;1.30;;;;;;;18.23;54.95;100182.87;4328149;33;34837;-81
2022/06/16 01:21:03;;;;;;;2.42;1.80;;;;;;;18.19;55.23;100181.41;4325281;33;34049;-81
2022/06/16 01:24:11;;;;;;;5.00;1.70;;;;;;;18.23;54.97;100170.38;4326390;33;33304;-81
2022/06/16 01:27:12;;;;;;;10.13;2.67;;;;;;;18.04;55.82;100173.47;4336749;33;33838;-81
2022/06/16 01:30:06;;;;;;;2.10;1.52;;;;;;;18.15;55.49;100178.94;4338431;33;32674;-81
2022/06/16 01:32:47;;;;;;;2.37;1.75;;;;;;;18.09;55.59;100167.81;4337671;32;34384;-81
2022/06/16 01:35:36;;;;;;;2.00;1.50;;;;;;;18.06;55.60;100174.22;4338058;33;34267;-81
2022/06/16 01:38:09;;;;;;;2.62;1.70;;;;;;;17.74;57.41;100172.87;4344498;32;32636;-81
2022/06/16 01:40:41;;;;;;;4.00;1.80;;;;;;;17.96;56.59;100173.13;4344977;33;33895;-81
2022/06/16 01:43:23;;;;;;;3.85;2.00;;;;;;;17.98;56.46;100160.50;4343970;32;33792;-83
2022/06/16 01:46:16;;;;;;;2.05;1.77;;;;;;;17.97;56.37;100168.66;4338340;33;33982;-82
2022/06/16 01:48:50;;;;;;;4.28;2.05;;;;;;;18.04;56.16;100169.91;4324620;33;33020;-82
2022/06/16 01:51:40;;;;;;;1.73;1.52;;;;;;;17.83;56.77;100167.75;4339071;32;33944;-82
2022/06/16 01:54:30;;;;;;;3.78;1.65;;;;;;;17.90;56.60;100169.06;4325155;33;33492;-82
2022/06/16 01:57:01;;;;;;;3.12;1.90;;;;;;;17.96;56.40;100170.47;4334703;33;32411;-81
2022/06/16 01:59:37;;;;;;;2.47;1.58;;;;;;;17.81;56.84;100168.84;4341619;32;32938;-82
2022/06/16 02:02:08;;;;;;;2.17;1.90;;;;;;;17.76;57.16;100158.47;4344423;33;34030;-81
2022/06/16 02:04:43;;;;;;;2.78;1.80;;;;;;;17.71;57.34;100159.69;4334804;33;33771;-81
2022/06/16 02:07:17;;;;;;;3.78;2.00;;;;;;;17.82;56.96;100166.06;4344409;33;31936;-81
2022/06/16 02:09:51;;;;;;;4.07;1.92;;;;;;;17.78;57.08;100163.69;4341037;32;33919;-82
2022/06/16 02:15:36;;;;;;;2.40;1.98;;;;;;;17.54;57.72;100161.69;4333221;33;34680;-81
2022/06/16 02:18:07;;;;;;;2.17;1.75;;;;;;;17.66;57.30;100160.88;4342041;32;34493;-82
2022/06/16 02:20:42;;;;;;;4.25;2.50;;;;;;;17.70;57.13;100158.84;4321469;33;32692;-82
2022/06/16 02:23:10;;;;;;;4.03;1.67;;;;;;;17.73;57.16;100164.00;4343547;32;34542;-82
2022/06/16 02:25:38;;;;;;;2.20;2.00;;;;;;;17.61;57.43;100160.34;4338523;33;34588;-81
2022/06/16 02:28:06;;;;;;;3.55;2.10;;;;;;;17.54;57.80;100161.69;4328897;32;32517;-81
2022/06/16 02:30:38;;;;;;;2.65;2.05;;;;;;;17.64;57.46;100157.44;4337088;33;34481;-81
2022/06/16 02:33:17;;;;;;;1.92;1.83;;;;;;;17.65;57.45;100156.47;4332894;33;33956;-80
2022/06/16 02:36:02;;;;;;;3.12;1.80;;;;;;;17.60;57.88;100158.59;4337974;33;33841;-81
2022/06/16 02:38:59;;;;;;;2.75;2.45;;;;;;;17.48;58.68;100162.09;4338672;33;33275;-82
2022/06/16 02:42:02;;;;;;;2.72;2.33;;;;;;;17.54;58.31;100164.34;4333630;33;33968;-82
2022/06/16 02:45:00;;;;;;;2.72;2.03;;;;;;;17.38;58.99;100164.53;4345922;32;34021;-82
2022/06/16 02:47:48;;;;;;;2.47;2.28;;;;;;;17.45;58.93;100164.97;4345633;32;34071;-82
2022/06/16 02:50:39;;;;;;;2.65;1.77;;;;;;;17.48;58.84;100162.09;4331052;33;33505;-82
2022/06/16 02:54:24;;;;;;;2.65;2.20;;;;;;;17.33;59.34;100168.47;4327574;33;33253;-82
2022/06/16 02:56:44;;;;;;;2.97;1.95;;;;;;;17.47;58.67;100164.84;4324207;33;33762;-82
2022/06/16 02:59:17;;;;;;;4.25;2.03;;;;;;;17.43;58.83;100166.91;4343320;33;34611;-81
2022/06/16 03:01:46;;;;;;;2.50;1.87;;;;;;;17.26;59.26;100167.13;4334169;33;33414;-81
2022/06/16 03:04:17;;;;;;;3.40;2.10;;;;;;;17.40;58.92;100172.44;4343670;32;33907;-83
2022/06/16 03:06:45;;;;;;;3.08;2.35;;;;;;;17.31;59.28;100176.56;4340705;33;32883;-83
2022/06/16 03:09:14;;;;;;;9.90;2.25;;;;;;;17.44;58.91;100165.94;4328361;33;33357;-83
2022/06/16 03:11:42;;;;;;;3.42;2.08;;;;;;;17.37;59.27;100164.59;4338196;33;33933;-83
2022/06/16 03:14:10;;;;;;;3.58;2.75;;;;;;;17.25;59.90;100168.97;4328450;33;32917;-83
2022/06/16 03:16:38;;;;;;;2.72;2.50;;;;;;;17.30;59.87;100171.31;4336594;33;32788;-83
2022/06/16 03:19:07;;;;;;;2.83;2.53;;;;;;;17.40;59.54;100164.41;4340953;32;33217;-83
2022/06/16 03:21:35;;;;;;;5.30;3.08;;;;;;;17.34;59.76;100164.84;4340755;33;33036;-82
2022/06/16 03:24:04;;;;;;;3.80;2.50;;;;;;;17.35;59.74;100172.72;4315100;33;33111;-82
2022/06/16 03:26:32;;;;;;;2.60;2.40;;;;;;;17.36;60.10;100168.25;4341084;32;34004;-82
2022/06/16 03:29:00;;;;;;;4.05;3.05;;;;;;;17.44;59.92;100165.94;4339571;33;33741;-80
2022/06/16 03:31:29;;;;;;;6.93;2.67;;;;;;;17.56;59.53;100165.09;4339988;32;33551;-80
2022/06/16 03:33:58;;;;;;;2.87;2.35;;;;;;;17.52;59.96;100168.06;4340271;33;34850;-83
2022/06/16 03:36:26;;;;;;;2.95;2.53;;;;;;;17.58;59.89;100157.84;4346405;32;34388;-81
2022/06/16 03:38:55;;;;;;;3.22;2.67;;;;;;;17.69;59.51;100165.13;4338022;33;33748;-81
2022/06/16 03:41:26;;;;;;;5.50;3.00;;;;;;;17.75;59.44;100163.91;4344670;32;33477;-81
2022/06/16 03:43:57;;;;;;;5.05;2.58;;;;;;;17.91;58.96;100169.94;4313792;33;32681;-81
2022/06/16 03:46:26;;;;;;;4.50;2.33;;;;;;;17.90;59.16;100161.06;4340951;33;34438;-81
2022/06/16 03:48:56;;;;;;;2.55;2.20;;;;;;;17.92;59.49;100160.94;4339740;33;34058;-81
2022/06/16 03:51:28;;;;;;;3.30;2.40;;;;;;;17.90;59.95;100162.87;4341586;33;32585;-81
2022/06/16 03:53:57;;;;;;;6.30;2.92;;;;;;;18.19;59.39;100165.38;4340525;33;33593;-81
2022/06/16 03:56:27;;;;;;;6.47;2.92;;;;;;;18.02;59.93;100171.84;4330548;33;33730;-81
2022/06/16 03:58:56;;;;;;;2.30;2.00;;;;;;;18.15;59.49;100168.22;4340489;33;34364;-81
2022/06/16 04:01:24;;;;;;;2.85;2.35;;;;;;;18.46;59.36;100175.91;4332764;33;32057;-81
2022/06/16 04:04:01;;;;;;;2.75;2.47;;;;;;;18.45;59.47;100174.22;4331184;33;33638;-80
2022/06/16 04:06:33;;;;;;;3.65;2.95;;;;;;;18.50;58.74;100172.94;4341268;33;33462;-80
2022/06/16 04:09:03;;;;;;;2.58;2.37;;;;;;;18.72;57.54;100180.31;4327894;33;33351;-80
2022/06/16 04:11:34;;;;;;;3.30;2.55;;;;;;;18.89;56.78;100184.44;4344801;33;32808;-81
2022/06/16 04:14:07;;;;;;;2.83;2.60;;;;;;;19.10;57.51;100176.69;4333532;33;34294;-80
2022/06/16 04:16:39;;;;;;;5.35;3.03;;;;;;;19.29;58.24;100177.06;4344209;33;33646;-80
2022/06/16 04:19:10;;;;;;;7.53;3.35;;;;;;;19.64;56.71;100171.75;4333610;33;33784;-81
2022/06/16 04:21:41;;;;;;;5.05;3.28;;;;;;;19.61;56.41;100180.03;4340470;33;33318;-81
2022/06/16 04:24:13;;;;;;;6.30;3.62;;;;;;;19.60;56.40;100185.50;4341450;33;33968;-81
2022/06/16 04:26:45;;;;;;;4.90;3.20;;;;;;;19.86;55.90;100180.88;4338419;33;33973;-81
2022/06/16 04:29:13;;;;;;;3.17;2.87;;;;;;;20.01;56.26;100182.38;4332965;33;34109;-82
2022/06/16 04:31:42;;;;;;;5.65;3.35;;;;;;;20.50;55.48;100183.06;4341621;32;34635;-81
2022/06/16 04:34:18;;;;;;;6.12;3.55;;;;;;;20.64;55.32;100182.84;4340700;33;34420;-81
2022/06/16 04:36:47;;;;;;;4.15;3.75;;;;;;;20.80;54.89;100186.03;4332309;32;33410;-81
2022/06/16 04:39:18;;;;;;;6.30;3.45;;;;;;;20.96;54.55;100189.16;4344286;32;34270;-81
2022/06/16 04:41:47;;;;;;;3.97;3.10;;;;;;;21.18;53.49;100182.91;4344058;33;34329;-82
2022/06/16 04:44:15;;;;;;;3.37;2.75;;;;;;;20.94;53.26;100191.12;4341578;32;33862;-82
2022/06/16 04:46:44;;;;;;;5.70;2.53;;;;;;;20.60;54.05;100184.06;4340466;32;33670;-82
2022/06/16 04:49:14;;;;;;;5.18;3.08;;;;;;;20.75;52.34;100179.28;4341638;32;34131;-83
2022/06/16 04:51:43;;;;;;;8.68;3.10;;;;;;;20.86;51.64;100185.53;4342490;32;33335;-82
2022/06/16 04:54:13;;;;;;;6.80;3.37;;;;;;;20.97;52.43;100187.31;4326958;33;31979;-82
2022/06/16 04:56:42;;;;;;;3.55;3.25;;;;;;;21.31;51.90;100173.88;4340936;32;34650;-82
2022/06/16 04:59:13;;;;;;;6.10;2.83;;;;;;;21.61;51.34;100178.53;4341242;32;33795;-82
2022/06/16 05:01:48;;;;;;;4.25;3.22;;;;;;;21.53;51.59;100176.47;4329033;33;33117;-81
2022/06/16 05:04:17;;;;;;;6.10;3.12;;;;;;;21.50;51.46;100183.94;4335962;33;34195;-81
2022/06/16 05:06:46;;;;;;;4.37;3.30;;;;;;;21.68;51.27;100179.72;4341283;33;34174;-81
2022/06/16 05:09:15;;;;;;;3.50;3.05;;;;;;;21.62;51.54;100181.09;4321061;33;32940;-81
2022/06/16 05:11:44;;;;;;;9.48;3.08;;;;;;;21.95;49.12;100179.22;4333171;33;32956;-81
2022/06/16 05:14:13;;;;;;;5.45;2.80;;;;;;;22.03;49.19;100175.87;4345252;33;33656;-81
2022/06/16 05:16:44;;;;;;;4.72;2.75;;;;;;;21.91;49.32;100175.09;4326681;33;34109;-82
2022/06/16 05:19:12;;;;;;;6.30;3.42;;;;;;;22.17;49.56;100176.44;4338307;33;34227;-81
2022/06/16 05:21:42;;;;;;;4.95;3.25;;;;;;;22.21;48.46;100182.41;4342590;33;34633;-81
2022/06/16 05:24:13;;;;;;;5.12;3.53;;;;;;;22.06;48.85;100172.94;4340647;32;34710;-81
2022/06/16 05:26:45;;;;;;;5.47;3.12;;;;;;;22.55;48.10;100169.56;4331238;33;34056;-81
2022/06/16 05:29:19;;;;;;;4.72;2.95;;;;;;;22.68;48.16;100170.19;4330427;33;34228;-81
2022/06/16 05:31:53;;;;;;;4.77;3.77;;;;;;;22.74;47.94;100172.34;4335091;33;33315;-81
2022/06/16 05:34:42;;;;;;;6.80;3.60;;;;;;;22.94;46.57;100175.97;4335516;33;33674;-81
2022/06/16 05:37:19;;;;;;;4.55;2.70;;;;;;;23.12;46.24;100168.09;4326476;33;35319;-81
2022/06/16 05:39:49;;;;;;;7.12;3.33;;;;;;;23.00;46.84;100164.66;4338381;33;33707;-81
2022/06/16 05:44:28;;;;;;;4.65;2.60;;;;;;;23.56;45.98;100159.63;4500396;31;347016;-81
2022/06/16 05:47:01;;;;;;;3.42;3.12;;;;;;;23.56;45.98;100159.63;4501319;31;33220;-82
2022/06/16 05:49:29;;;;;;;4.12;2.70;;;;;;;23.20;46.00;100170.06;4500409;31;34503;-82
2022/06/16 05:52:00;;;;;;;2.97;2.50;;;;;;;23.23;45.71;100170.66;4491448;31;33262;-83
2022/06/16 05:54:28;;;;;;;8.82;2.45;;;;;;;23.27;47.68;100159.63;4500732;31;32392;-82
2022/06/16 05:56:59;;;;;;;8.27;2.42;;;;;;;23.41;45.42;100161.91;4490721;31;32335;-83
2022/06/16 05:59:32;;;;;;;5.28;2.30;;;;;;;23.53;45.74;100166.16;4480367;31;34022;-83
2022/06/16 06:02:03;;;;;;;2.83;2.53;;;;;;;23.49;47.05;100164.72;4481821;31;33204;-83
2022/06/16 06:04:34;;;;;;;10.25;2.20;;;;;;;24.18;43.62;100155.63;4500344;31;31619;-83
2022/06/16 06:07:05;;;;;;;3.22;2.62;;;;;;;24.11;44.24;100159.88;4487496;31;33035;-84
2022/06/16 06:18:08;;;;;;;2.55;2.08;;;;;;;24.61;43.11;100156.94;4500333;31;32108;-82
2022/06/16 06:20:37;;;;;;;6.18;1.95;;;;;;;24.81;42.83;100158.53;4479628;31;32634;-82
2022/06/16 06:23:07;;;;;;;3.80;2.47;;;;;;;25.26;42.39;100163.16;4502124;31;34331;-82
2022/06/16 06:25:43;;;;;;;4.40;1.90;;;;;;;25.59;43.17;100158.03;4498287;31;33383;-83
2022/06/16 06:28:18;;;;;;;3.87;2.00;;;;;;;25.75;42.64;100159.09;4493962;31;32659;-82
2022/06/16 06:30:47;;;;;;;10.68;3.10;;;;;;;25.92;42.74;100148.38;4498585;31;33891;-82
2022/06/16 06:33:16;;;;;;;5.12;2.20;;;;;;;26.04;42.34;100155.25;4492236;31;34010;-82
2022/06/16 06:35:44;;;;;;;2.37;2.08;;;;;;;26.03;39.12;100154.41;4501772;31;33421;-82
2022/06/16 06:38:13;;;;;;;12.30;3.15;;;;;;;25.99;40.47;100152.19;4487791;31;33016;-82
2022/06/16 06:40:43;;;;;;;4.07;1.77;;;;;;;26.03;39.15;100157.12;4486253;31;33770;-82
2022/06/16 06:43:13;;;;;;;3.40;1.80;;;;;;;26.19;39.41;100150.97;4489111;31;34498;-82
2022/06/16 06:45:45;;;;;;;4.70;1.95;;;;;;;26.18;41.64;100153.84;4487343;31;32738;-84
2022/06/16 06:48:21;;;;;;;4.45;1.80;;;;;;;25.76;39.00;100163.50;4500873;31;33096;-83
2022/06/16 06:50:51;;;;;;;4.95;1.60;;;;;;;26.22;38.77;100156.06;4489048;31;33666;-83
2022/06/16 06:53:19;;;;;;;4.55;2.35;;;;;;;26.23;38.58;100156.91;4503000;31;33838;-82
2022/06/16 06:55:47;;;;;;;2.65;1.83;;;;;;;26.24;40.21;100148.63;4486792;31;32400;-83
2022/06/16 06:58:18;;;;;;;4.40;1.75;;;;;;;26.60;38.20;100148.53;4481383;31;33746;-82
2022/06/16 07:00:49;;;;;;;5.00;2.12;;;;;;;26.87;37.35;100147.47;4485176;31;35152;-82
2022/06/16 07:03:20;;;;;;;1.90;1.70;;;;;;;27.06;38.68;100158.03;4487630;31;32863;-82
2022/06/16 07:05:50;;;;;;;5.80;1.92;;;;;;;27.01;37.71;100148.69;4504748;31;34116;-82
2022/06/16 07:08:19;;;;;;;5.72;2.08;;;;;;;27.39;37.11;100143.72;4467103;31;31583;-82
2022/06/16 07:10:47;;;;;;;3.55;2.03;;;;;;;27.30;36.64;100148.31;4489995;31;34364;-82
2022/06/16 07:13:16;;;;;;;4.78;2.22;;;;;;;27.64;36.75;100148.19;4475825;31;34260;-83
2022/06/16 07:15:44;;;;;;;3.85;2.22;;;;;;;27.90;36.99;100144.47;4477273;31;33486;-83
2022/06/16 07:18:13;;;;;;;3.17;1.98;;;;;;;27.70;36.78;100147.50;4476922;31;32310;-83
2022/06/16 07:20:47;;;;;;;2.83;1.80;;;;;;;27.60;35.75;100141.38;4475091;31;34405;-82
2022/06/16 07:23:20;;;;;;;3.70;2.22;;;;;;;28.27;36.13;100133.03;4492922;31;34564;-83
2022/06/16 07:25:50;;;;;;;2.12;1.52;;;;;;;27.98;36.41;100134.44;4478880;31;32689;-82
2022/06/16 07:28:20;;;;;;;3.95;1.98;;;;;;;27.98;35.68;100133.59;4478215;31;32781;-82
2022/06/16 07:30:52;;;;;;;2.62;1.48;;;;;;;28.32;35.92;100128.78;4479517;31;33482;-82
2022/06/16 07:33:49;;;;;;;6.68;2.17;;;;;;;28.31;35.68;100128.97;4491383;31;33934;-82
2022/06/16 07:36:21;;;;;;;1.92;1.67;;;;;;;28.87;36.19;100137.97;4483146;31;33875;-83
2022/06/16 07:38:52;;;;;;;6.37;1.95;;;;;;;28.86;35.88;100132.69;4475726;31;30962;-83
2022/06/16 07:41:36;;;;;;;3.15;1.77;;;;;;;28.75;35.24;100139.38;4475131;31;33564;-83
2022/06/16 07:44:07;;;;;;;2.53;1.65;;;;;;;28.94;32.92;100135.37;4490170;31;33229;-83
2022/06/16 07:46:42;;;;;;;4.63;2.37;;;;;;;28.75;34.33;100126.62;4476584;31;33816;-83
2022/06/16 07:49:22;;;;;;;3.55;2.00;;;;;;;28.34;34.57;100125.91;4488866;31;33036;-82
2022/06/16 07:51:51;;;;;;;7.47;2.17;;;;;;;28.39;34.77;100131.69;4475584;32;32983;-82
2022/06/16 07:54:20;;;;;;;3.80;2.47;;;;;;;28.73;33.37;100128.69;4475111;31;33205;-83
2022/06/16 07:57:11;;;;;;;2.50;1.75;;;;;;;27.95;34.94;100129.34;4481890;31;34131;-83
2022/06/16 07:59:53;;;;;;;4.85;1.85;;;;;;;28.90;35.12;100125.88;4476664;31;32576;-83
2022/06/16 08:02:22;;;;;;;6.10;2.35;;;;;;;28.72;32.95;100121.56;4462913;31;33394;-83
2022/06/16 08:04:51;;;;;;;1.70;1.40;;;;;;;29.00;34.08;100123.81;4489206;31;33648;-83
2022/06/16 08:07:19;;;;;;;3.33;1.52;;;;;;;28.92;32.88;100123.84;4476951;31;34386;-83
2022/06/16 08:09:48;;;;;;;4.10;1.70;;;;;;;28.96;29.53;100119.75;4475552;31;32312;-82
2022/06/16 08:12:21;;;;;;;5.70;2.28;;;;;;;29.17;30.32;100114.53;4476932;31;31692;-83
2022/06/16 08:15:07;;;;;;;3.37;1.70;;;;;;;29.39;31.44;100112.88;4476079;31;32180;-83
2022/06/16 08:17:44;;;;;;;1.73;1.52;;;;;;;29.57;31.49;100121.59;4475943;31;32787;-83
2022/06/16 08:20:14;;;;;;;6.03;1.60;;;;;;;29.85;31.25;100108.25;4483687;31;33257;-83
2022/06/16 08:22:47;;;;;;;3.55;1.27;;;;;;;30.27;31.25;100112.28;4486559;31;33932;-82
2022/06/16 08:25:18;;;;;;;5.50;1.52;;;;;;;29.96;29.34;100117.88;4474502;31;33403;-82
2022/06/16 08:27:49;;;;;;;4.65;1.92;;;;;;;30.10;27.79;100117.03;4490578;31;36092;-83
2022/06/16 08:30:18;;;;;;;2.37;1.55;;;;;;;29.70;29.17;100114.69;4491758;31;33103;-83
2022/06/16 08:32:52;;;;;;;2.47;1.58;;;;;;;29.79;30.51;100124.47;4493430;31;33596;-83
2022/06/16 08:35:21;;;;;;;5.62;1.40;;;;;;;30.06;29.69;100117.59;4469347;31;32765;-83
2022/06/16 08:37:50;;;;;;;4.72;1.30;;;;;;;30.46;27.43;100115.50;4463354;31;33133;-83
2022/06/16 08:40:19;;;;;;;1.70;1.30;;;;;;;30.22;27.87;100114.72;4492359;31;32614;-83
2022/06/16 08:42:52;;;;;;;2.85;1.20;;;;;;;29.75;25.90;100117.72;4479774;31;33671;-83
2022/06/16 08:45:35;;;;;;;7.75;1.92;;;;;;;29.60;25.69;100131.28;4478272;31;34070;-83
2022/06/16 08:48:32;;;;;;;2.40;1.55;;;;;;;29.75;25.65;100121.28;4477977;31;33433;-83
2022/06/16 08:51:18;;;;;;;2.15;1.37;;;;;;;29.94;25.56;100121.78;4488635;31;33322;-83
2022/06/16 08:53:58;;;;;;;1.92;1.58;;;;;;;30.17;26.38;100117.16;4491908;31;32605;-83
2022/06/16 08:56:34;;;;;;;2.60;1.75;;;;;;;30.12;26.81;100124.19;4490437;31;33611;-83
2022/06/16 08:59:49;;;;;;;2.33;1.52;;;;;;;30.17;26.83;100117.16;4477570;31;32957;-83
2022/06/16 09:02:43;;;;;;;3.42;1.70;;;;;;;30.44;27.94;100117.56;4462926;31;32375;-83
2022/06/16 09:08:51;;;;;;;2.22;1.35;;;;;;;30.29;28.72;100112.97;4461767;31;34185;-83
2022/06/16 09:11:54;;;;;;;1.92;1.37;;;;;;;30.51;28.43;100119.34;4484310;31;32703;-83
2022/06/16 09:15:11;;;;;;;4.43;1.67;;;;;;;30.47;27.60;100106.28;4485590;31;33198;-84
2022/06/16 09:17:59;;;;;;;2.17;1.62;;;;;;;30.68;25.58;100102.81;4478442;31;33703;-83
2022/06/16 09:20:36;;;;;;;2.60;1.83;;;;;;;31.25;27.15;100107.47;4478656;31;33905;-83
2022/06/16 09:23:31;;;;;;;4.95;2.12;;;;;;;31.04;27.83;100100.94;4476176;31;32484;-84
2022/06/16 09:26:12;;;;;;;4.25;2.08;;;;;;;30.89;28.52;100100.16;4490316;31;31402;-84
2022/06/16 09:28:54;;;;;;;3.10;1.67;;;;;;;30.40;27.62;100102.63;4487354;31;33933;-84
2022/06/16 09:31:49;;;;;;;3.70;1.75;;;;;;;30.76;26.87;100100.81;4488074;31;33853;-84
2022/06/16 09:34:39;;;;;;;4.15;1.83;;;;;;;30.94;26.27;100105.03;4487948;31;33789;-84
2022/06/16 09:37:25;;;;;;;5.10;2.17;;;;;;;31.03;27.37;100103.88;4477687;31;32948;-84
2022/06/16 09:40:12;;;;;;;5.35;1.85;;;;;;;30.93;26.51;100106.91;4477534;31;32819;-84
2022/06/16 09:42:47;;;;;;;1.33;1.08;;;;;;;30.49;26.42;100104.22;4472945;31;33002;-83
2022/06/16 09:45:22;;;;;;;1.35;0.93;;;;;;;30.86;26.02;100084.19;4482900;31;34661;-83
2022/06/16 09:48:21;;;;;;;4.22;1.30;;;;;;;30.64;24.95;100075.06;4473987;31;33217;-83
2022/06/16 09:50:58;;;;;;;7.47;1.50;;;;;;;30.68;23.29;100076.38;4480152;31;32806;-83
2022/06/16 09:53:42;;;;;;;1.27;1.00;;;;;;;31.43;24.12;100074.28;4494660;31;33968;-82
2022/06/16 09:56:24;;;;;;;1.83;1.08;;;;;;;31.15;23.42;100077.78;4487362;31;34239;-83
2022/06/16 09:58:56;;;;;;;1.40;1.02;;;;;;;30.89;24.13;100081.06;4474470;31;32580;-83
2022/06/16 10:01:28;;;;;;;1.27;0.80;;;;;;;31.17;22.99;100080.31;4488728;31;33234;-83
2022/06/16 10:04:03;;;;;;;2.42;1.20;;;;;;;31.47;23.16;100081.91;4489152;31;33732;-83
2022/06/16 10:06:58;;;;;;;2.47;1.30;;;;;;;31.44;22.67;100081.47;4480028;31;33910;-83
2022/06/16 10:09:46;;;;;;;3.15;1.17;;;;;;;31.67;22.37;100076.62;4492880;31;32688;-83
2022/06/16 10:12:36;;;;;;;1.20;1.00;;;;;;;31.07;21.95;100069.72;4487716;31;34529;-83
2022/06/16 10:15:14;;;;;;;1.60;1.02;;;;;;;31.92;24.10;100071.59;4486184;31;33628;-83
2022/06/16 10:17:46;;;;;;;3.35;1.27;;;;;;;32.22;24.20;100074.94;4486345;31;33434;-83
2022/06/16 10:20:17;;;;;;;3.53;0.80;;;;;;;31.71;23.47;100066.97;4486117;31;32788;-83
2022/06/16 10:22:50;;;;;;;4.43;1.30;;;;;;;31.52;23.22;100068.50;4473988;31;33704;-83
2022/06/16 10:25:28;;;;;;;2.20;1.20;;;;;;;32.09;22.40;100064.78;4487107;31;34195;-83
2022/06/16 10:28:28;;;;;;;3.30;1.20;;;;;;;31.87;24.10;100066.75;4487788;31;33141;-83
2022/06/16 10:30:58;;;;;;;1.30;1.00;;;;;;;31.87;26.64;100071.34;4475834;31;32286;-84
2022/06/16 10:33:33;;;;;;;7.87;1.27;;;;;;;32.26;22.72;100068.03;4496016;31;34118;-83
2022/06/16 10:36:17;;;;;;;1.50;1.00;;;;;;;32.01;25.20;100072.31;4478980;31;33384;-83
2022/06/16 10:39:20;;;;;;;1.85;0.90;;;;;;;32.42;21.76;100074.25;4487320;31;33754;-83
2022/06/16 10:42:23;;;;;;;2.35;1.12;;;;;;;32.27;22.37;100080.66;4467932;31;33078;-83
2022/06/16 10:44:56;;;;;;;2.12;1.05;;;;;;;32.85;21.04;100070.25;4487699;31;34688;-83
2022/06/16 10:47:47;;;;;;;2.30;1.27;;;;;;;33.14;20.66;100068.25;4490463;31;33531;-83
2022/06/16 10:50:21;;;;;;;2.00;1.30;;;;;;;32.76;20.50;100074.19;4479461;31;33919;-83
2022/06/16 10:53:19;;;;;;;5.00;1.40;;;;;;;32.65;20.45;100074.78;4478790;31;33061;-83
2022/06/16 10:55:58;;;;;;;2.53;1.45;;;;;;;32.36;22.65;100068.53;4491659;31;33280;-83
2022/06/16 10:58:32;;;;;;;1.85;1.05;;;;;;;32.51;21.10;100067.56;4489091;31;32286;-83
2022/06/16 11:01:32;;;;;;;3.55;1.25;;;;;;;32.62;22.37;100061.53;4489661;31;33508;-84
2022/06/16 11:04:13;;;;;;;2.65;1.10;;;;;;;32.04;21.51;100050.87;4486093;31;32241;-84
2022/06/16 11:06:48;;;;;;;1.58;1.20;;;;;;;31.84;22.97;100050.75;4490292;31;33865;-84
2022/06/16 11:09:26;;;;;;;1.95;0.98;;;;;;;32.03;24.13;100043.72;4490912;31;34706;-83
2022/06/16 11:12:03;;;;;;;2.85;0.80;;;;;;;32.10;21.92;100041.06;4488502;31;34295;-84
2022/06/16 11:14:40;;;;;;;2.45;1.00;;;;;;;32.03;21.64;100037.44;4486365;31;33355;-83
2022/06/16 11:17:30;;;;;;;1.02;0.93;;;;;;;32.27;24.80;100036.94;4478688;31;32031;-84
2022/06/16 11:20:31;;;;;;;2.47;0.95;;;;;;;32.92;22.11;100031.16;4475592;31;35009;-84
2022/06/16 11:23:21;;;;;;;1.58;0.80;;;;;;;32.12;21.21;100025.28;4476592;31;32615;-83
2022/06/16 11:26:14;;;;;;;5.50;1.30;;;;;;;32.40;22.13;100022.53;4489379;31;32394;-83
2022/06/16 11:28:50;;;;;;;1.35;1.10;;;;;;;32.26;21.75;100021.59;4494000;31;33610;-84
2022/06/16 11:31:24;;;;;;;1.50;1.08;;;;;;;33.05;20.50;100015.59;4487824;31;33869;-84
2022/06/16 11:34:16;;;;;;;7.37;1.55;;;;;;;32.52;20.25;100000.91;4492380;31;34100;-83
2022/06/16 11:36:48;;;;;;;2.62;1.20;;;;;;;32.18;20.98;100007.25;4465300;31;33295;-83
2022/06/16 11:39:36;;;;;;;2.03;1.12;;;;;;;32.99;19.82;99999.16;4478054;31;32420;-84
2022/06/16 11:45:09;;;;;;;2.28;1.27;;;;;;;32.76;23.22;100002.25;4489589;31;33460;-84
2022/06/16 11:47:45;;;;;;;0.93;0.82;;;;;;;32.56;20.35;99999.44;4491053;31;33666;-84
2022/06/16 11:50:38;;;;;;;8.43;1.75;;;;;;;32.48;21.99;99991.47;4480583;31;33449;-84
2022/06/16 11:53:23;;;;;;;1.98;1.10;;;;;;;32.31;20.66;99986.28;4456936;31;34485;-83
2022/06/16 11:56:06;;;;;;;2.10;1.50;;;;;;;32.11;22.55;99986.22;4491100;31;33707;-83
2022/06/16 11:59:11;;;;;;;2.08;1.37;;;;;;;32.47;22.81;99982.38;4493532;31;33121;-83
2022/06/16 12:01:48;;;;;;;;;;;;;;;32.15;22.00;99986.66;4489916;31;33812;-84
2022/06/16 12:04:39;;;;;;;3.00;1.27;;;;;;;32.48;21.95;99975.06;4477643;31;33782;-84
2022/06/16 12:07:33;;;;;;;1.60;1.15;;;;;;;32.96;23.72;99980.47;4501480;31;34023;-83
2022/06/16 12:10:07;;;;;;;3.35;1.05;;;;;;;33.11;23.05;99971.00;4496217;31;33882;-84
2022/06/16 12:12:47;;;;;;;3.30;1.40;;;;;;;33.61;20.89;99971.44;4476590;31;33794;-84
2022/06/16 12:15:39;;;;;;;2.50;1.50;;;;;;;33.84;19.93;99970.94;4480579;31;33649;-84
2022/06/16 12:18:34;;;;;;;1.65;1.23;;;;;;;32.89;21.28;99972.19;4495362;31;33789;-84
2022/06/16 12:21:20;;;;;;;3.22;1.45;;;;;;;33.64;20.54;99965.53;4491712;31;33828;-84
2022/06/16 12:23:56;;;;;;;1.73;1.30;;;;;;;33.74;21.75;99972.44;4491828;31;32257;-83
2022/06/16 12:30:00;;;;;;;6.22;1.58;;;;;;;33.48;21.50;99976.94;4488267;31;32260;-83
2022/06/16 12:32:47;;;;;;;5.95;1.27;;;;;;;33.71;18.84;99971.00;4487359;31;34214;-83
2022/06/16 12:35:30;;;;;;;1.70;1.02;;;;;;;33.31;19.93;99971.00;4496953;31;34055;-84
2022/06/16 12:38:03;;;;;;;2.45;1.42;;;;;;;33.67;20.45;99956.03;4489124;31;32941;-84